sensor_id;sensor_type;location;lat;lon;timestamp;temperature;humidity
49531;DHT22;74875;30.696;104.060;2023-12-20T00:02:14;16.00;56.10
49531;DHT22;74875;30.696;104.060;2023-12-20T00:04:42;16.10;57.40
49531;DHT22;74875;30.696;104.060;2023-12-20T00:07:09;16.10;56.20
49531;DHT22;74875;30.696;104.060;2023-12-20T00:16:57;16.10;56.30
49531;DHT22;74875;30.696;104.060;2023-12-20T00:19:24;16.10;56.20
49531;DHT22;74875;30.696;104.060;2023-12-20T00:21:51;16.10;56.10
49531;DHT22;74875;30.696;104.060;2023-12-20T00:26:45;16.10;56.20
49531;DHT22;74875;30.696;104.060;2023-12-20T00:31:40;16.10;56.10
49531;DHT22;74875;30.696;104.060;2023-12-20T00:36:35;16.00;56.80
49531;DHT22;74875;30.696;104.060;2023-12-20T00:39:02;16.00;56.40
49531;DHT22;74875;30.696;104.060;2023-12-20T00:41:29;16.10;55.90
49531;DHT22;74875;30.696;104.060;2023-12-20T00:46:24;16.10;55.20
49531;DHT22;74875;30.696;104.060;2023-12-20T00:48:51;16.10;57.10
49531;DHT22;74875;30.696;104.060;2023-12-20T00:51:18;16.10;56.20
49531;DHT22;74875;30.696;104.060;2023-12-20T00:53:45;16.10;56.90
49531;DHT22;74875;30.696;104.060;2023-12-20T00:58:43;16.10;56.40
49531;DHT22;74875;30.696;104.060;2023-12-20T01:06:04;16.20;57.00
49531;DHT22;74875;30.696;104.060;2023-12-20T01:11:03;16.10;55.80
49531;DHT22;74875;30.696;104.060;2023-12-20T01:18:24;16.10;56.80
49531;DHT22;74875;30.696;104.060;2023-12-20T01:23:18;16.20;56.20
49531;DHT22;74875;30.696;104.060;2023-12-20T01:28:12;16.20;56.40
49531;DHT22;74875;30.696;104.060;2023-12-20T01:35:34;16.10;56.20
49531;DHT22;74875;30.696;104.060;2023-12-20T01:38:01;16.10;56.20
49531;DHT22;74875;30.696;104.060;2023-12-20T01:40:28;16.20;55.90
49531;DHT22;74875;30.696;104.060;2023-12-20T01:45:29;16.20;56.00
49531;DHT22;74875;30.696;104.060;2023-12-20T01:47:57;16.10;57.80
49531;DHT22;74875;30.696;104.060;2023-12-20T01:55:20;14.60;57.20
49531;DHT22;74875;30.696;104.060;2023-12-20T02:02:42;16.20;57.70
49531;DHT22;74875;30.696;104.060;2023-12-20T02:05:11;16.10;56.20
49531;DHT22;74875;30.696;104.060;2023-12-20T02:07:39;16.20;56.20
49531;DHT22;74875;30.696;104.060;2023-12-20T02:12:34;16.20;57.40
49531;DHT22;74875;30.696;104.060;2023-12-20T02:17:31;16.10;57.60
49531;DHT22;74875;30.696;104.060;2023-12-20T02:27:20;16.20;56.20
49531;DHT22;74875;30.696;104.060;2023-12-20T02:29:48;16.20;55.90
49531;DHT22;74875;30.696;104.060;2023-12-20T02:39:39;16.20;56.20
49531;DHT22;74875;30.696;104.060;2023-12-20T02:42:06;16.40;56.40
49531;DHT22;74875;30.696;104.060;2023-12-20T02:44:33;16.20;55.20
49531;DHT22;74875;30.696;104.060;2023-12-20T02:47:00;16.30;55.90
49531;DHT22;74875;30.696;104.060;2023-12-20T02:54:21;16.40;54.60
49531;DHT22;74875;30.696;104.060;2023-12-20T03:04:12;16.20;56.90
49531;DHT22;74875;30.696;104.060;2023-12-20T03:11:34;16.30;55.70
49531;DHT22;74875;30.696;104.060;2023-12-20T03:21:23;16.40;56.00
49531;DHT22;74875;30.696;104.060;2023-12-20T03:23:50;16.30;55.80
49531;DHT22;74875;30.696;104.060;2023-12-20T03:26:18;16.30;55.20
49531;DHT22;74875;30.696;104.060;2023-12-20T03:28:45;16.40;55.50
49531;DHT22;74875;30.696;104.060;2023-12-20T03:38:34;16.30;55.20
49531;DHT22;74875;30.696;104.060;2023-12-20T03:55:56;15.90;55.10
49531;DHT22;74875;30.696;104.060;2023-12-20T03:58:23;16.30;56.00
49531;DHT22;74875;30.696;104.060;2023-12-20T04:03:18;16.30;55.40
49531;DHT22;74875;30.696;104.060;2023-12-20T04:08:12;16.80;54.40
49531;DHT22;74875;30.696;104.060;2023-12-20T04:10:39;16.50;55.50
49531;DHT22;74875;30.696;104.060;2023-12-20T04:13:08;16.40;55.30
49531;DHT22;74875;30.696;104.060;2023-12-20T04:15:35;16.30;55.10
49531;DHT22;74875;30.696;104.060;2023-12-20T04:18:02;16.50;55.40
49531;DHT22;74875;30.696;104.060;2023-12-20T04:20:29;16.40;55.40
49531;DHT22;74875;30.696;104.060;2023-12-20T04:40:06;16.50;56.10
49531;DHT22;74875;30.696;104.060;2023-12-20T04:52:23;16.40;55.10
49531;DHT22;74875;30.696;104.060;2023-12-20T04:54:50;16.50;55.00
49531;DHT22;74875;30.696;104.060;2023-12-20T04:59:45;16.40;55.00
49531;DHT22;74875;30.696;104.060;2023-12-20T05:07:06;16.50;54.90
49531;DHT22;74875;30.696;104.060;2023-12-20T05:09:33;17.60;55.50
49531;DHT22;74875;30.696;104.060;2023-12-20T05:16:54;16.50;55.60
49531;DHT22;74875;30.696;104.060;2023-12-20T05:19:21;16.40;55.30
49531;DHT22;74875;30.696;104.060;2023-12-20T05:21:48;16.40;55.40
49531;DHT22;74875;30.696;104.060;2023-12-20T05:26:42;16.40;55.20
49531;DHT22;74875;30.696;104.060;2023-12-20T05:29:10;16.40;55.60
49531;DHT22;74875;30.696;104.060;2023-12-20T05:31:37;16.40;55.40
49531;DHT22;74875;30.696;104.060;2023-12-20T05:34:04;16.50;55.40
49531;DHT22;74875;30.696;104.060;2023-12-20T05:41:25;16.40;55.30
49531;DHT22;74875;30.696;104.060;2023-12-20T05:48:48;16.40;55.70
49531;DHT22;74875;30.696;104.060;2023-12-20T05:53:42;16.40;55.30
49531;DHT22;74875;30.696;104.060;2023-12-20T05:56:10;16.40;56.50
49531;DHT22;74875;30.696;104.060;2023-12-20T05:58:39;16.40;56.60
49531;DHT22;74875;30.696;104.060;2023-12-20T06:01:06;16.30;55.30
49531;DHT22;74875;30.696;104.060;2023-12-20T06:06:08;16.40;51.90
49531;DHT22;74875;30.696;104.060;2023-12-20T06:08:35;16.40;56.20
49531;DHT22;74875;30.696;104.060;2023-12-20T06:13:30;16.40;55.60
49531;DHT22;74875;30.696;104.060;2023-12-20T06:15:57;16.30;57.10
49531;DHT22;74875;30.696;104.060;2023-12-20T06:20:52;16.40;55.80
49531;DHT22;74875;30.696;104.060;2023-12-20T06:25:46;16.40;55.30
49531;DHT22;74875;30.696;104.060;2023-12-20T06:28:13;16.40;55.40
49531;DHT22;74875;30.696;104.060;2023-12-20T06:33:10;16.40;56.00
49531;DHT22;74875;30.696;104.060;2023-12-20T06:38:04;16.30;55.10
49531;DHT22;74875;30.696;104.060;2023-12-20T06:45:26;16.40;55.40
49531;DHT22;74875;30.696;104.060;2023-12-20T06:47:53;16.40;55.30
49531;DHT22;74875;30.696;104.060;2023-12-20T06:55:15;16.40;55.50
49531;DHT22;74875;30.696;104.060;2023-12-20T07:02:39;16.40;55.60
49531;DHT22;74875;30.696;104.060;2023-12-20T07:12:28;16.40;56.10
49531;DHT22;74875;30.696;104.060;2023-12-20T07:22:16;16.40;54.80
49531;DHT22;74875;30.696;104.060;2023-12-20T07:24:43;16.30;54.30
49531;DHT22;74875;30.696;104.060;2023-12-20T07:32:05;16.40;56.60
49531;DHT22;74875;30.696;104.060;2023-12-20T07:34:32;16.30;55.40
49531;DHT22;74875;30.696;104.060;2023-12-20T07:39:26;16.40;55.70
49531;DHT22;74875;30.696;104.060;2023-12-20T07:44:20;16.80;56.40
49531;DHT22;74875;30.696;104.060;2023-12-20T07:46:47;16.30;55.40
49531;DHT22;74875;30.696;104.060;2023-12-20T07:51:42;16.10;54.40
49531;DHT22;74875;30.696;104.060;2023-12-20T07:59:03;16.30;55.50
49531;DHT22;74875;30.696;104.060;2023-12-20T08:03:57;16.20;55.10
49531;DHT22;74875;30.696;104.060;2023-12-20T08:08:51;16.50;56.00
49531;DHT22;74875;30.696;104.060;2023-12-20T08:11:18;16.30;55.70
49531;DHT22;74875;30.696;104.060;2023-12-20T08:28:37;16.20;57.00
49531;DHT22;74875;30.696;104.060;2023-12-20T08:35:58;16.20;55.90
49531;DHT22;74875;30.696;104.060;2023-12-20T08:38:25;16.20;55.90
49531;DHT22;74875;30.696;104.060;2023-12-20T08:40:53;16.10;56.50
49531;DHT22;74875;30.696;104.060;2023-12-20T08:50:41;16.20;56.10
49531;DHT22;74875;30.696;104.060;2023-12-20T08:55:35;16.20;56.20
49531;DHT22;74875;30.696;104.060;2023-12-20T09:00:29;16.20;55.60
49531;DHT22;74875;30.696;104.060;2023-12-20T09:07:51;16.20;55.30
49531;DHT22;74875;30.696;104.060;2023-12-20T09:20:10;16.20;56.60
49531;DHT22;74875;30.696;104.060;2023-12-20T09:22:40;16.10;56.30
49531;DHT22;74875;30.696;104.060;2023-12-20T09:25:09;16.00;56.50
49531;DHT22;74875;30.696;104.060;2023-12-20T09:32:32;16.10;57.00
49531;DHT22;74875;30.696;104.060;2023-12-20T09:45:02;16.10;56.70
49531;DHT22;74875;30.696;104.060;2023-12-20T09:47:31;16.00;56.50
49531;DHT22;74875;30.696;104.060;2023-12-20T09:52:25;16.00;55.20
49531;DHT22;74875;30.696;104.060;2023-12-20T09:57:21;16.30;56.20
49531;DHT22;74875;30.696;104.060;2023-12-20T09:59:49;16.00;56.00
49531;DHT22;74875;30.696;104.060;2023-12-20T10:02:19;16.00;56.90
49531;DHT22;74875;30.696;104.060;2023-12-20T10:09:44;16.00;54.80
49531;DHT22;74875;30.696;104.060;2023-12-20T10:22:04;15.90;56.50
49531;DHT22;74875;30.696;104.060;2023-12-20T10:24:32;15.80;53.30
49531;DHT22;74875;30.696;104.060;2023-12-20T10:27:06;15.90;56.70
49531;DHT22;74875;30.696;104.060;2023-12-20T10:29:37;15.80;56.40
49531;DHT22;74875;30.696;104.060;2023-12-20T10:34:52;15.90;56.20
49531;DHT22;74875;30.696;104.060;2023-12-20T10:39:54;15.90;56.60
49531;DHT22;74875;30.696;104.060;2023-12-20T10:44:54;15.80;54.90
49531;DHT22;74875;30.696;104.060;2023-12-20T10:57:12;15.90;57.80
49531;DHT22;74875;30.696;104.060;2023-12-20T11:07:37;15.80;55.60
49531;DHT22;74875;30.696;104.060;2023-12-20T11:13:17;15.80;57.70
49531;DHT22;74875;30.696;104.060;2023-12-20T11:15:47;15.60;57.30
49531;DHT22;74875;30.696;104.060;2023-12-20T11:20:42;15.80;58.10
49531;DHT22;74875;30.696;104.060;2023-12-20T11:23:10;15.80;57.70
49531;DHT22;74875;30.696;104.060;2023-12-20T11:28:15;15.80;57.60
49531;DHT22;74875;30.696;104.060;2023-12-20T11:40:38;15.80;56.30
49531;DHT22;74875;30.696;104.060;2023-12-20T11:47:59;15.70;54.20
49531;DHT22;74875;30.696;104.060;2023-12-20T11:50:26;15.70;56.20
49531;DHT22;74875;30.696;104.060;2023-12-20T12:02:59;15.70;57.20
49531;DHT22;74875;30.696;104.060;2023-12-20T12:05:30;15.70;55.00
49531;DHT22;74875;30.696;104.060;2023-12-20T12:07:58;15.70;55.20
49531;DHT22;74875;30.696;104.060;2023-12-20T12:10:25;15.70;55.50
49531;DHT22;74875;30.696;104.060;2023-12-20T12:17:54;15.70;55.90
49531;DHT22;74875;30.696;104.060;2023-12-20T12:20:23;15.50;54.20
49531;DHT22;74875;30.696;104.060;2023-12-20T12:28:01;15.60;52.30
49531;DHT22;74875;30.696;104.060;2023-12-20T12:32:57;15.60;57.20
49531;DHT22;74875;30.696;104.060;2023-12-20T12:35:24;15.60;57.00
49531;DHT22;74875;30.696;104.060;2023-12-20T12:37:51;15.70;55.40
49531;DHT22;74875;30.696;104.060;2023-12-20T12:42:46;15.70;55.80
49531;DHT22;74875;30.696;104.060;2023-12-20T12:50:09;15.70;56.70
49531;DHT22;74875;30.696;104.060;2023-12-20T12:55:04;15.70;56.30
49531;DHT22;74875;30.696;104.060;2023-12-20T12:59:58;15.60;54.10
49531;DHT22;74875;30.696;104.060;2023-12-20T13:04:52;15.90;55.40
49531;DHT22;74875;30.696;104.060;2023-12-20T13:07:19;15.50;55.30
49531;DHT22;74875;30.696;104.060;2023-12-20T13:17:08;15.70;55.90
49531;DHT22;74875;30.696;104.060;2023-12-20T13:19:35;15.60;54.80
49531;DHT22;74875;30.696;104.060;2023-12-20T13:22:02;15.60;55.40
49531;DHT22;74875;30.696;104.060;2023-12-20T13:24:30;15.60;54.60
49531;DHT22;74875;30.696;104.060;2023-12-20T13:26:58;15.60;55.00
49531;DHT22;74875;30.696;104.060;2023-12-20T13:34:22;15.50;54.60
49531;DHT22;74875;30.696;104.060;2023-12-20T13:39:17;15.60;55.30
49531;DHT22;74875;30.696;104.060;2023-12-20T13:41:44;15.60;54.70
49531;DHT22;74875;30.696;104.060;2023-12-20T13:53:59;15.60;54.80
49531;DHT22;74875;30.696;104.060;2023-12-20T13:58:53;15.50;54.80
49531;DHT22;74875;30.696;104.060;2023-12-20T14:03:51;15.70;54.90
49531;DHT22;74875;30.696;104.060;2023-12-20T14:16:09;15.50;53.80
49531;DHT22;74875;30.696;104.060;2023-12-20T14:18:37;15.50;56.10
49531;DHT22;74875;30.696;104.060;2023-12-20T14:21:04;15.60;55.40
49531;DHT22;74875;30.696;104.060;2023-12-20T14:26:00;15.50;56.90
49531;DHT22;74875;30.696;104.060;2023-12-20T14:30:55;15.50;54.70
49531;DHT22;74875;30.696;104.060;2023-12-20T14:38:18;15.50;51.10
49531;DHT22;74875;30.696;104.060;2023-12-20T14:48:08;15.50;55.90
49531;DHT22;74875;30.696;104.060;2023-12-20T14:50:35;15.20;54.80
49531;DHT22;74875;30.696;104.060;2023-12-20T14:57:57;15.40;54.60
49531;DHT22;74875;30.696;104.060;2023-12-20T15:07:48;15.40;54.90
49531;DHT22;74875;30.696;104.060;2023-12-20T15:10:15;15.40;54.90
49531;DHT22;74875;30.696;104.060;2023-12-20T15:17:41;15.40;54.00
49531;DHT22;74875;30.696;104.060;2023-12-20T15:20:08;15.40;56.60
49531;DHT22;74875;30.696;104.060;2023-12-20T15:22:38;15.30;55.70
49531;DHT22;74875;30.696;104.060;2023-12-20T15:27:35;15.30;57.80
49531;DHT22;74875;30.696;104.060;2023-12-20T15:30:05;15.30;58.00
49531;DHT22;74875;30.696;104.060;2023-12-20T15:32:33;15.30;55.90
49531;DHT22;74875;30.696;104.060;2023-12-20T15:35:03;15.30;57.60
49531;DHT22;74875;30.696;104.060;2023-12-20T15:37:30;15.40;55.60
49531;DHT22;74875;30.696;104.060;2023-12-20T15:39:57;15.40;55.60
49531;DHT22;74875;30.696;104.060;2023-12-20T15:42:24;15.30;55.40
49531;DHT22;74875;30.696;104.060;2023-12-20T15:54:40;15.30;55.50
49531;DHT22;74875;30.696;104.060;2023-12-20T15:57:08;15.10;55.20
49531;DHT22;74875;30.696;104.060;2023-12-20T15:59:36;15.30;54.40
49531;DHT22;74875;30.696;104.060;2023-12-20T16:06:57;15.30;54.10
49531;DHT22;74875;30.696;104.060;2023-12-20T16:14:19;15.20;55.50
49531;DHT22;74875;30.696;104.060;2023-12-20T16:19:14;15.30;57.50
49531;DHT22;74875;30.696;104.060;2023-12-20T16:26:38;15.30;56.20
49531;DHT22;74875;30.696;104.060;2023-12-20T16:31:32;15.30;55.40
49531;DHT22;74875;30.696;104.060;2023-12-20T16:33:59;15.30;55.50
49531;DHT22;74875;30.696;104.060;2023-12-20T16:43:53;15.00;54.90
49531;DHT22;74875;30.696;104.060;2023-12-20T16:46:20;15.20;54.70
49531;DHT22;74875;30.696;104.060;2023-12-20T16:51:14;15.30;55.30
49531;DHT22;74875;30.696;104.060;2023-12-20T16:53:41;15.30;55.30
49531;DHT22;74875;30.696;104.060;2023-12-20T16:56:08;15.30;55.90
49531;DHT22;74875;30.696;104.060;2023-12-20T16:58:35;15.30;55.80
49531;DHT22;74875;30.696;104.060;2023-12-20T17:03:31;15.30;55.60
49531;DHT22;74875;30.696;104.060;2023-12-20T17:05:58;15.30;54.90
49531;DHT22;74875;30.696;104.060;2023-12-20T17:08:25;15.20;55.50
49531;DHT22;74875;30.696;104.060;2023-12-20T17:10:52;15.30;54.70
49531;DHT22;74875;30.696;104.060;2023-12-20T17:18:14;15.40;55.80
49531;DHT22;74875;30.696;104.060;2023-12-20T17:23:09;15.30;57.70
49531;DHT22;74875;30.696;104.060;2023-12-20T17:28:06;15.30;57.90
49531;DHT22;74875;30.696;104.060;2023-12-20T17:30:33;15.30;56.40
49531;DHT22;74875;30.696;104.060;2023-12-20T17:33:01;15.50;58.00
49531;DHT22;74875;30.696;104.060;2023-12-20T17:35:30;15.30;56.50
49531;DHT22;74875;30.696;104.060;2023-12-20T17:37:57;15.30;55.80
49531;DHT22;74875;30.696;104.060;2023-12-20T17:42:51;15.20;55.80
49531;DHT22;74875;30.696;104.060;2023-12-20T17:52:41;15.40;56.40
49531;DHT22;74875;30.696;104.060;2023-12-20T17:57:35;15.40;55.50
49531;DHT22;74875;30.696;104.060;2023-12-20T18:00:17;15.30;51.70
49531;DHT22;74875;30.696;104.060;2023-12-20T18:07:40;15.30;55.30
49531;DHT22;74875;30.696;104.060;2023-12-20T18:17:29;15.40;54.80
49531;DHT22;74875;30.696;104.060;2023-12-20T18:22:26;15.20;57.40
49531;DHT22;74875;30.696;104.060;2023-12-20T18:24:53;15.30;55.20
49531;DHT22;74875;30.696;104.060;2023-12-20T18:27:22;15.30;55.40
49531;DHT22;74875;30.696;104.060;2023-12-20T18:29:49;15.40;56.80
49531;DHT22;74875;30.696;104.060;2023-12-20T18:37:11;15.40;55.20
49531;DHT22;74875;30.696;104.060;2023-12-20T18:39:38;15.40;57.50
49531;DHT22;74875;30.696;104.060;2023-12-20T18:42:06;15.30;57.60
49531;DHT22;74875;30.696;104.060;2023-12-20T18:47:01;15.20;55.30
49531;DHT22;74875;30.696;104.060;2023-12-20T18:51:56;15.30;55.10
49531;DHT22;74875;30.696;104.060;2023-12-20T18:54:23;15.40;55.40
49531;DHT22;74875;30.696;104.060;2023-12-20T18:56:50;15.30;55.30
49531;DHT22;74875;30.696;104.060;2023-12-20T19:09:09;15.30;55.50
49531;DHT22;74875;30.696;104.060;2023-12-20T19:11:36;15.30;55.40
49531;DHT22;74875;30.696;104.060;2023-12-20T19:14:04;15.30;55.10
49531;DHT22;74875;30.696;104.060;2023-12-20T19:16:34;15.40;56.00
49531;DHT22;74875;30.696;104.060;2023-12-20T19:19:01;15.30;55.60
49531;DHT22;74875;30.696;104.060;2023-12-20T19:21:29;15.40;56.30
49531;DHT22;74875;30.696;104.060;2023-12-20T19:26:23;15.30;55.80
49531;DHT22;74875;30.696;104.060;2023-12-20T19:31:17;15.30;55.60
49531;DHT22;74875;30.696;104.060;2023-12-20T19:38:43;15.30;55.60
49531;DHT22;74875;30.696;104.060;2023-12-20T19:51:00;15.30;55.80
49531;DHT22;74875;30.696;104.060;2023-12-20T19:55:54;15.30;57.20
49531;DHT22;74875;30.696;104.060;2023-12-20T20:00:49;15.40;56.60
49531;DHT22;74875;30.696;104.060;2023-12-20T20:03:16;15.30;55.70
49531;DHT22;74875;30.696;104.060;2023-12-20T20:05:44;15.30;55.60
49531;DHT22;74875;30.696;104.060;2023-12-20T20:08:11;14.80;57.50
49531;DHT22;74875;30.696;104.060;2023-12-20T20:13:05;15.30;55.80
49531;DHT22;74875;30.696;104.060;2023-12-20T20:18:00;15.30;55.20
49531;DHT22;74875;30.696;104.060;2023-12-20T20:20:27;15.30;55.80
49531;DHT22;74875;30.696;104.060;2023-12-20T20:25:21;15.30;55.60
49531;DHT22;74875;30.696;104.060;2023-12-20T20:27:48;15.40;56.10
49531;DHT22;74875;30.696;104.060;2023-12-20T20:30:15;15.20;55.70
49531;DHT22;74875;30.696;104.060;2023-12-20T20:42:36;15.50;55.80
49531;DHT22;74875;30.696;104.060;2023-12-20T20:45:03;15.20;56.50
49531;DHT22;74875;30.696;104.060;2023-12-20T20:52:24;15.30;55.10
49531;DHT22;74875;30.696;104.060;2023-12-20T20:54:51;15.30;55.70
49531;DHT22;74875;30.696;104.060;2023-12-20T20:57:18;15.20;55.50
49531;DHT22;74875;30.696;104.060;2023-12-20T21:16:56;15.20;55.40
49531;DHT22;74875;30.696;104.060;2023-12-20T21:19:23;15.30;55.10
49531;DHT22;74875;30.696;104.060;2023-12-20T21:21:50;15.30;55.40
49531;DHT22;74875;30.696;104.060;2023-12-20T21:26:45;15.30;55.30
49531;DHT22;74875;30.696;104.060;2023-12-20T21:29:12;15.30;57.70
49531;DHT22;74875;30.696;104.060;2023-12-20T21:31:39;15.20;55.50
49531;DHT22;74875;30.696;104.060;2023-12-20T21:39:01;15.30;56.00
49531;DHT22;74875;30.696;104.060;2023-12-20T21:41:28;15.30;55.40
49531;DHT22;74875;30.696;104.060;2023-12-20T21:48:52;15.20;56.70
49531;DHT22;74875;30.696;104.060;2023-12-20T21:56:14;15.30;55.80
49531;DHT22;74875;30.696;104.060;2023-12-20T22:01:08;15.20;55.60
49531;DHT22;74875;30.696;104.060;2023-12-20T22:03:35;15.30;55.40
49531;DHT22;74875;30.696;104.060;2023-12-20T22:06:02;15.20;55.70
49531;DHT22;74875;30.696;104.060;2023-12-20T22:08:29;15.30;55.70
49531;DHT22;74875;30.696;104.060;2023-12-20T22:10:56;15.20;56.00
49531;DHT22;74875;30.696;104.060;2023-12-20T22:13:24;15.30;55.40
49531;DHT22;74875;30.696;104.060;2023-12-20T22:28:10;15.30;57.60
49531;DHT22;74875;30.696;104.060;2023-12-20T22:30:37;15.30;56.00
49531;DHT22;74875;30.696;104.060;2023-12-20T22:40:26;15.30;58.00
49531;DHT22;74875;30.696;104.060;2023-12-20T22:42:54;15.30;55.40
49531;DHT22;74875;30.696;104.060;2023-12-20T22:45:21;15.30;56.70
49531;DHT22;74875;30.696;104.060;2023-12-20T22:50:16;15.20;58.00
49531;DHT22;74875;30.696;104.060;2023-12-20T22:55:10;15.30;56.30
49531;DHT22;74875;30.696;104.060;2023-12-20T22:57:37;15.20;55.50
49531;DHT22;74875;30.696;104.060;2023-12-20T23:02:34;15.30;55.60
49531;DHT22;74875;30.696;104.060;2023-12-20T23:07:28;15.20;55.90
49531;DHT22;74875;30.696;104.060;2023-12-20T23:12:22;15.10;55.60
49531;DHT22;74875;30.696;104.060;2023-12-20T23:17:18;15.30;58.20
49531;DHT22;74875;30.696;104.060;2023-12-20T23:19:45;15.20;55.70
49531;DHT22;74875;30.696;104.060;2023-12-20T23:22:12;15.30;56.30
49531;DHT22;74875;30.696;104.060;2023-12-20T23:24:39;15.20;55.80
49531;DHT22;74875;30.696;104.060;2023-12-20T23:32:02;15.40;56.00
49531;DHT22;74875;30.696;104.060;2023-12-20T23:46:44;15.30;55.80
49531;DHT22;74875;30.696;104.060;2023-12-20T23:51:38;15.30;55.60
49531;DHT22;74875;30.696;104.060;2023-12-20T23:54:06;15.30;56.00
